Accueil
METAR-TAF:

METAR-TAF

Aéroports :

Caen, France

Aéroport de Caen - Carpiquet

latitude: 49-11N, longitude: 000-27W, altitude: 78 m

Observation

Le bulletin a été fait il y a 36 minutes, à 21:30 UTC
Vent 6 kt de sud-ouest
Température 9°C
Humidité 87%
Pression 1022 hPa
Visibilité 10 km ou plus
Ciel couvert à une hauteur de 2900 ft

METAR: LFRK 222130Z AUTO 23006KT 9999 OVC029 09/07 Q1022

Heure: 23:06 (22:06 UTC)

Prévision

Le bulletin a été fait il y a 8 heures et 6 minutes, à 14:00 UTC
Prévision valable du 22 à 15 UTC au 22 à 24 UTC
Vent 15 kt de ouest/nord-ouest avec des rafales jusqu'à 25 kt
Visibilité 10 km ou plus
Nuages fragmentés à une hauteur de 3000 ft
Evoluant progressivement
du 22 à 15 UTC au 22 à 16 UTC
Vent 10 kt de ouest/nord-ouest
Evoluant progressivement
du 22 à 20 UTC au 22 à 22 UTC
Vent 10 kt de ouest/sud-ouest

TAF: LFRK 221400Z 2215/2224 30015G25KT 9999 BKN030 BECMG 2215/2216 30010KT BECMG 2220/2222 24010KT

Observations et prévisions météorologiques de plus de 4000 aéroports (messages METAR et TAF).

Les stations disponibles sont représentées par des disques jaunes et rouges sur la carte.

Passer la souris dessus pour voir le nom de la station.

Cliquer dessus pour voir les observations et prévisions météorologiques.

Pour changer de carte: cliquez sur les boutons verts avec une croix noire pour zoomer, sur le bouton vert avec un tiret pour effectuer un zoom arrière, ou sur les flèches vertes pour les cartes adjacentes.


METAR-TAF: